Welcome to La Porte Aviation Services!

An aviation adventure awaits

Current Weather Conditions

Available data for KPPO from the past 2 hours
LA PORTE, IN
Metar
KPPO 190915Z AUTO 01010KT 10SM SCT037 BKN080 OVC110 01/00 A3004 RMK AO2 T00071002

09:15 UTC

Wind: 10° 10kt

Visibility: 10 SM

Sky: SCT 3700 ft

Temp: 1 deg C / 33.8 deg F

Dewpoint: 0 deg C / 32 deg F

Pressure: 30.04 inHg

Pirep (1)
ORD UA /OV ORD270020/TM 0745/FL035/TP C310/SK B040-T035 LYR ABV/TA M02/IC LGT RIME

Connect with us on Facebook!

Facebook By Weblizar Powered By Weblizar